createdAt,value
2022-11-29T00:01:38.534Z,63.15
2022-11-29T00:04:09.938Z,64.06
2022-11-29T00:06:37.841Z,64.08
2022-11-29T00:09:09.894Z,64.07
2022-11-29T00:11:56.717Z,63.70
2022-11-29T00:14:28.526Z,63.94
2022-11-29T00:16:59.296Z,63.61
2022-11-29T00:19:27.409Z,63.88
2022-11-29T00:21:56.004Z,63.75
2022-11-29T00:24:24.388Z,63.14
2022-11-29T00:26:52.936Z,62.94
2022-11-29T00:29:20.966Z,62.74
2022-11-29T00:31:50.217Z,63.43
2022-11-29T00:34:18.186Z,63.40
2022-11-29T00:36:46.457Z,63.04
2022-11-29T00:39:16.260Z,63.66
2022-11-29T00:41:44.513Z,63.60
2022-11-29T00:44:19.664Z,62.93
2022-11-29T00:46:48.258Z,63.36
2022-11-29T00:49:17.822Z,63.59
2022-11-29T00:51:46.241Z,63.35
2022-11-29T00:54:14.259Z,62.99
2022-11-29T00:56:42.272Z,62.88
2022-11-29T00:59:10.966Z,62.41
2022-11-29T01:01:38.943Z,62.82
2022-11-29T01:04:07.166Z,62.96
2022-11-29T01:06:38.728Z,62.77
2022-11-29T01:09:07.163Z,63.08
2022-11-29T01:11:35.820Z,63.30
2022-11-29T01:14:04.750Z,63.31
2022-11-29T01:16:34.532Z,63.32
2022-11-29T01:19:02.635Z,62.89
2022-11-29T01:21:30.966Z,63.17
2022-11-29T01:24:01.616Z,63.63
2022-11-29T01:26:31.741Z,63.04
2022-11-29T01:29:00.869Z,62.37
2022-11-29T01:31:30.638Z,62.87
2022-11-29T01:34:00.529Z,62.86
2022-11-29T01:36:30.222Z,62.77
2022-11-29T01:39:02.252Z,63.10
2022-11-29T01:41:31.879Z,62.97
2022-11-29T01:44:03.759Z,63.06
2022-11-29T01:46:34.001Z,63.10
2022-11-29T01:49:05.571Z,63.04
2022-11-29T01:51:35.998Z,62.55
2022-11-29T01:54:06.416Z,62.57
2022-11-29T01:56:35.822Z,62.83
2022-11-29T01:59:07.932Z,62.84
2022-11-29T02:01:37.200Z,62.59
2022-11-29T02:04:05.471Z,62.65
2022-11-29T02:06:34.171Z,62.98
2022-11-29T02:09:02.375Z,62.60
2022-11-29T02:12:05.849Z,62.89
2022-11-29T02:15:00.148Z,63.06
2022-11-29T02:17:34.435Z,62.28
2022-11-29T02:20:44.315Z,62.66
2022-11-29T02:23:34.358Z,62.20
2022-11-29T02:26:17.193Z,62.45
2022-11-29T02:29:42.133Z,62.46
2022-11-29T02:33:00.935Z,62.52
2022-11-29T02:35:45.045Z,62.36
2022-11-29T02:38:37.067Z,62.64
2022-11-29T02:41:31.259Z,62.75
2022-11-29T02:44:24.426Z,62.14
2022-11-29T02:47:09.305Z,62.28
2022-11-29T02:49:59.479Z,62.40
2022-11-29T02:52:37.684Z,62.25
2022-11-29T02:55:11.770Z,62.17
2022-11-29T02:57:44.582Z,62.08
2022-11-29T03:00:17.521Z,62.31
2022-11-29T03:02:54.481Z,62.48
2022-11-29T03:05:31.298Z,62.05
2022-11-29T03:08:08.919Z,62.11
2022-11-29T03:10:51.503Z,62.48
2022-11-29T03:13:26.187Z,62.66
2022-11-29T03:16:01.084Z,62.70
2022-11-29T03:18:35.797Z,62.82
2022-11-29T03:21:15.294Z,63.00
2022-11-29T03:23:49.639Z,62.99
2022-11-29T03:26:22.837Z,62.79
2022-11-29T03:28:58.665Z,62.91
2022-11-29T03:31:33.533Z,63.50
2022-11-29T03:34:12.370Z,63.21
2022-11-29T03:36:49.054Z,63.34
2022-11-29T03:39:24.235Z,63.47
2022-11-29T03:42:00.134Z,63.59
2022-11-29T03:44:32.559Z,63.84
2022-11-29T03:47:06.037Z,64.13
2022-11-29T03:49:40.485Z,63.53
2022-11-29T03:52:18.131Z,63.91
2022-11-29T03:54:58.956Z,63.90
2022-11-29T03:57:36.291Z,63.88
2022-11-29T04:00:08.616Z,64.20
2022-11-29T04:03:13.134Z,63.95
2022-11-29T04:06:07.908Z,64.36
2022-11-29T04:09:00.366Z,64.00
2022-11-29T04:12:05.925Z,64.53
2022-11-29T04:15:15.209Z,64.19
2022-11-29T04:18:16.000Z,64.05
2022-11-29T04:21:14.359Z,64.22
2022-11-29T04:24:00.352Z,64.33
2022-11-29T04:27:24.826Z,64.37
2022-11-29T04:30:07.338Z,64.74
2022-11-29T04:33:14.202Z,64.49
2022-11-29T04:36:06.799Z,64.20
2022-11-29T04:39:04.334Z,64.76
2022-11-29T04:41:54.483Z,64.28
2022-11-29T04:44:43.136Z,64.69
2022-11-29T04:47:35.544Z,64.62
2022-11-29T04:50:26.679Z,64.84
2022-11-29T04:53:25.530Z,64.81
2022-11-29T04:56:02.992Z,64.39
2022-11-29T04:58:38.995Z,64.70
2022-11-29T05:01:16.676Z,64.98
2022-11-29T05:03:56.909Z,64.88
2022-11-29T05:06:34.542Z,64.94
2022-11-29T05:09:13.479Z,65.05
2022-11-29T05:11:55.181Z,65.20
2022-11-29T05:14:32.437Z,64.82
2022-11-29T05:17:22.821Z,65.14
2022-11-29T05:20:02.442Z,65.28
2022-11-29T05:22:37.228Z,65.65
2022-11-29T05:25:31.828Z,65.47
2022-11-29T05:28:10.027Z,65.35
2022-11-29T05:31:03.638Z,64.94
2022-11-29T05:33:50.096Z,65.90
2022-11-29T05:36:29.895Z,65.08
2022-11-29T05:39:11.177Z,65.81
2022-11-29T05:41:56.938Z,65.75
2022-11-29T05:44:32.316Z,65.54
2022-11-29T05:47:03.088Z,65.10
2022-11-29T05:49:39.933Z,65.55
2022-11-29T05:52:24.978Z,65.56
2022-11-29T05:55:08.427Z,65.38
2022-11-29T05:57:43.441Z,65.90
2022-11-29T06:00:15.105Z,66.12
2022-11-29T06:02:50.267Z,65.86
2022-11-29T06:05:27.474Z,65.72
2022-11-29T06:08:04.454Z,65.78
2022-11-29T06:10:36.782Z,66.24
2022-11-29T06:13:18.805Z,65.98
2022-11-29T06:16:09.846Z,66.40
2022-11-29T06:18:58.406Z,65.41
2022-11-29T06:21:37.407Z,66.52
2022-11-29T06:24:28.162Z,65.75
2022-11-29T06:27:10.701Z,66.19
2022-11-29T06:29:46.301Z,67.76
2022-11-29T06:32:25.678Z,66.82
2022-11-29T06:34:59.666Z,66.49
2022-11-29T06:37:34.815Z,66.10
2022-11-29T06:40:04.005Z,66.34
2022-11-29T06:42:31.893Z,66.35
2022-11-29T06:45:00.725Z,66.35
2022-11-29T06:47:32.638Z,66.55
2022-11-29T06:50:17.033Z,66.35
2022-11-29T06:52:54.604Z,66.61
2022-11-29T06:55:29.017Z,66.56
2022-11-29T06:58:06.196Z,66.46
2022-11-29T07:00:43.632Z,66.55
2022-11-29T07:03:34.574Z,66.46
2022-11-29T07:06:10.321Z,66.34
2022-11-29T07:08:41.966Z,66.41
2022-11-29T07:11:15.216Z,66.38
2022-11-29T07:13:44.246Z,66.30
2022-11-29T07:16:19.430Z,67.06
2022-11-29T07:18:56.195Z,66.86
2022-11-29T07:21:37.213Z,66.53
2022-11-29T07:24:17.988Z,66.70
2022-11-29T07:26:58.040Z,66.79
2022-11-29T07:29:37.359Z,66.74
2022-11-29T07:32:17.090Z,66.63
2022-11-29T07:34:56.774Z,66.41
2022-11-29T07:37:35.403Z,66.65
2022-11-29T07:40:12.301Z,66.43
2022-11-29T07:42:52.554Z,66.14
2022-11-29T07:45:27.520Z,66.31
2022-11-29T07:47:55.453Z,66.13
2022-11-29T07:50:23.954Z,65.83
2022-11-29T07:52:52.032Z,66.42
2022-11-29T07:55:24.283Z,66.12
2022-11-29T07:57:52.974Z,65.75
2022-11-29T08:00:21.862Z,65.80
2022-11-29T08:02:51.339Z,65.78
2022-11-29T08:05:19.649Z,65.78
2022-11-29T08:07:47.966Z,65.82
2022-11-29T08:10:17.584Z,65.44
2022-11-29T08:12:50.118Z,65.86
2022-11-29T08:15:18.675Z,66.07
2022-11-29T08:17:47.133Z,66.47
2022-11-29T08:20:16.550Z,66.95
2022-11-29T08:22:44.889Z,67.03
2022-11-29T08:25:13.641Z,67.17
2022-11-29T08:27:41.648Z,67.14
2022-11-29T08:30:11.435Z,66.87
2022-11-29T08:32:39.472Z,66.90
2022-11-29T08:35:07.495Z,67.46
2022-11-29T08:37:35.447Z,67.17
2022-11-29T08:40:04.608Z,67.06
2022-11-29T08:42:32.401Z,67.28
2022-11-29T08:45:00.185Z,67.82
2022-11-29T08:47:38.404Z,67.09
2022-11-29T08:50:12.230Z,67.31
2022-11-29T08:52:59.960Z,67.40
2022-11-29T08:55:32.436Z,68.01
2022-11-29T08:58:03.632Z,67.71
2022-11-29T09:00:32.612Z,67.83
2022-11-29T09:03:17.914Z,67.80
2022-11-29T09:05:45.875Z,67.82
2022-11-29T09:08:14.019Z,68.07
2022-11-29T09:10:44.816Z,67.81
2022-11-29T09:13:13.423Z,67.55
2022-11-29T09:15:42.621Z,67.80
2022-11-29T09:18:12.389Z,67.63
2022-11-29T09:20:43.725Z,67.55
2022-11-29T09:23:12.130Z,67.69
2022-11-29T09:25:40.284Z,68.00
2022-11-29T09:28:08.656Z,68.35
2022-11-29T09:30:38.296Z,68.08
2022-11-29T09:33:06.252Z,67.58
2022-11-29T09:35:36.157Z,67.41
2022-11-29T09:38:06.120Z,67.75
2022-11-29T09:40:39.801Z,67.51
2022-11-29T09:43:19.036Z,67.62
2022-11-29T09:45:51.283Z,67.61
2022-11-29T09:48:54.554Z,68.04
2022-11-29T09:51:32.521Z,67.86
2022-11-29T09:54:17.588Z,67.51
2022-11-29T09:56:48.440Z,67.93
2022-11-29T09:59:22.950Z,67.72
2022-11-29T10:01:56.421Z,67.90
2022-11-29T10:04:28.981Z,67.87
2022-11-29T10:07:03.780Z,68.49
2022-11-29T10:09:38.221Z,68.34
2022-11-29T10:12:15.414Z,67.64
2022-11-29T10:14:50.082Z,68.30
2022-11-29T10:17:31.637Z,68.24
2022-11-29T10:20:04.554Z,68.12
2022-11-29T10:22:42.894Z,68.04
2022-11-29T10:25:20.373Z,67.67
2022-11-29T10:27:48.275Z,67.62
2022-11-29T10:30:17.193Z,68.36
2022-11-29T10:32:51.647Z,68.19
2022-11-29T10:35:20.885Z,68.07
2022-11-29T10:38:22.746Z,67.68
2022-11-29T10:40:47.936Z,68.06
2022-11-29T10:43:16.540Z,67.67
2022-11-29T10:45:50.564Z,68.40
2022-11-29T10:48:21.025Z,67.85
2022-11-29T10:50:51.697Z,68.31
2022-11-29T10:53:25.259Z,68.26
2022-11-29T10:56:00.290Z,68.41
2022-11-29T10:58:30.117Z,68.44
2022-11-29T11:01:01.286Z,68.45
2022-11-29T11:03:39.890Z,68.55
2022-11-29T11:06:12.087Z,68.26
2022-11-29T11:08:44.950Z,68.53
2022-11-29T11:11:13.496Z,68.35
2022-11-29T11:13:41.944Z,68.18
2022-11-29T11:16:17.088Z,68.58
2022-11-29T11:18:46.135Z,68.45
2022-11-29T11:21:16.979Z,70.48
2022-11-29T11:23:54.734Z,70.00
2022-11-29T11:26:23.699Z,70.85
2022-11-29T11:28:56.141Z,70.17
2022-11-29T11:31:31.572Z,69.61
2022-11-29T11:34:18.972Z,68.99
2022-11-29T11:36:47.123Z,66.97
2022-11-29T11:39:22.836Z,67.03
2022-11-29T11:42:10.100Z,66.71
2022-11-29T11:44:49.816Z,67.39
2022-11-29T11:47:21.238Z,66.65
2022-11-29T11:49:51.207Z,66.89
2022-11-29T11:52:23.665Z,66.87
2022-11-29T11:54:55.737Z,66.94
2022-11-29T11:57:26.626Z,67.17
2022-11-29T11:59:57.855Z,67.20
2022-11-29T12:02:30.002Z,67.01
2022-11-29T12:05:03.589Z,66.97
2022-11-29T12:08:06.601Z,66.90
2022-11-29T12:10:30.021Z,66.91
2022-11-29T12:13:00.440Z,66.87
2022-11-29T12:15:32.351Z,66.61
2022-11-29T12:18:07.113Z,66.54
2022-11-29T12:20:40.600Z,67.12
2022-11-29T12:23:24.537Z,67.34
2022-11-29T12:25:59.030Z,66.91
2022-11-29T12:28:29.976Z,66.78
2022-11-29T12:31:08.855Z,66.87
2022-11-29T12:33:49.500Z,67.08
2022-11-29T12:36:32.052Z,67.04
2022-11-29T12:39:40.577Z,66.76
2022-11-29T12:42:19.649Z,67.08
2022-11-29T12:44:57.449Z,66.89
2022-11-29T12:47:36.211Z,67.13
2022-11-29T12:50:25.557Z,67.70
2022-11-29T12:53:07.648Z,67.39
2022-11-29T12:55:49.419Z,67.34
2022-11-29T12:58:29.031Z,67.22
2022-11-29T13:01:10.516Z,67.13
2022-11-29T13:03:52.598Z,67.11
2022-11-29T13:06:29.199Z,67.49
2022-11-29T13:09:16.600Z,67.52
2022-11-29T13:11:54.700Z,67.46
2022-11-29T13:14:42.506Z,67.35
2022-11-29T13:17:23.078Z,67.23
2022-11-29T13:19:55.933Z,67.25
2022-11-29T13:22:32.687Z,67.23
2022-11-29T13:25:04.234Z,67.52
2022-11-29T13:27:36.139Z,66.91
2022-11-29T13:30:07.124Z,66.77
2022-11-29T13:32:37.368Z,67.23
2022-11-29T13:35:09.702Z,67.14
2022-11-29T13:37:43.689Z,66.80
2022-11-29T13:40:25.834Z,66.82
2022-11-29T13:43:02.365Z,66.59
2022-11-29T13:45:38.830Z,66.45
2022-11-29T13:48:27.764Z,66.80
2022-11-29T13:50:57.304Z,66.01
2022-11-29T13:53:27.013Z,66.33
2022-11-29T13:56:01.668Z,66.46
2022-11-29T13:58:38.539Z,66.18
2022-11-29T14:01:12.785Z,66.42
2022-11-29T14:03:42.809Z,66.88
2022-11-29T14:06:13.992Z,66.65
2022-11-29T14:09:17.333Z,66.81
2022-11-29T14:11:44.503Z,66.48
2022-11-29T14:14:23.898Z,66.59
2022-11-29T14:16:57.085Z,66.38
2022-11-29T14:19:31.622Z,66.10
2022-11-29T14:22:31.667Z,66.48
2022-11-29T14:25:49.761Z,66.08
2022-11-29T14:28:30.235Z,65.69
2022-11-29T14:30:58.596Z,65.51
2022-11-29T14:34:03.575Z,65.98
2022-11-29T14:36:52.600Z,65.80
2022-11-29T14:39:31.505Z,65.94
2022-11-29T14:42:14.710Z,66.35
2022-11-29T14:44:51.478Z,65.91
2022-11-29T14:47:31.920Z,66.16
2022-11-29T14:50:06.952Z,66.59
2022-11-29T14:52:38.879Z,66.24
2022-11-29T14:55:29.117Z,66.42
2022-11-29T14:58:22.766Z,66.33
2022-11-29T15:01:11.074Z,66.35
2022-11-29T15:03:47.768Z,66.49
2022-11-29T15:06:25.669Z,66.67
2022-11-29T15:09:01.967Z,66.50
2022-11-29T15:11:53.027Z,66.48
2022-11-29T15:14:34.896Z,66.74
2022-11-29T15:17:20.813Z,66.55
2022-11-29T15:20:16.394Z,66.64
2022-11-29T15:22:49.476Z,66.71
2022-11-29T15:25:19.859Z,66.56
2022-11-29T15:27:54.857Z,66.53
2022-11-29T15:30:30.990Z,66.43
2022-11-29T15:33:01.096Z,66.88
2022-11-29T15:35:29.449Z,66.74
2022-11-29T15:37:58.728Z,66.44
2022-11-29T15:40:34.763Z,66.64
2022-11-29T15:43:15.110Z,66.79
2022-11-29T15:45:49.061Z,66.80
2022-11-29T15:48:24.826Z,66.49
2022-11-29T15:50:58.509Z,66.59
2022-11-29T15:53:34.481Z,66.64
2022-11-29T15:56:05.136Z,66.89
2022-11-29T15:58:35.458Z,67.19
2022-11-29T16:01:07.549Z,67.17
2022-11-29T16:03:39.686Z,66.83
2022-11-29T16:06:19.839Z,67.07
2022-11-29T16:08:51.131Z,67.02
2022-11-29T16:11:24.074Z,66.97
2022-11-29T16:14:18.958Z,67.12
2022-11-29T16:16:50.154Z,66.80
2022-11-29T16:19:37.066Z,66.93
2022-11-29T16:22:14.787Z,67.03
2022-11-29T16:24:52.778Z,66.95
2022-11-29T16:27:22.863Z,66.90
2022-11-29T16:29:55.349Z,67.05
2022-11-29T16:32:34.705Z,67.19
2022-11-29T16:35:13.356Z,67.23
2022-11-29T16:37:43.336Z,66.59
2022-11-29T16:40:23.550Z,66.91
2022-11-29T16:43:23.940Z,67.41
2022-11-29T16:46:30.357Z,67.01
2022-11-29T16:49:01.199Z,67.25
2022-11-29T16:51:37.796Z,66.95
2022-11-29T16:54:21.765Z,66.92
2022-11-29T16:56:52.676Z,66.89
2022-11-29T16:59:37.706Z,67.07
2022-11-29T17:02:11.260Z,67.15
2022-11-29T17:04:39.204Z,66.60
2022-11-29T17:07:08.945Z,66.80
2022-11-29T17:09:37.013Z,67.34
2022-11-29T17:12:06.894Z,66.79
2022-11-29T17:14:35.040Z,67.11
2022-11-29T17:17:02.984Z,66.76
2022-11-29T17:22:50.697Z,67.05
2022-11-29T17:28:19.864Z,67.15
2022-11-29T17:31:04.142Z,67.22
2022-11-29T17:33:35.633Z,67.59
2022-11-29T17:36:44.372Z,67.18
2022-11-29T17:39:30.881Z,67.46
2022-11-29T17:42:09.437Z,67.24
2022-11-29T17:44:54.243Z,67.10
2022-11-29T17:47:36.962Z,66.97
2022-11-29T17:50:17.245Z,67.38
2022-11-29T17:52:52.412Z,67.14
2022-11-29T17:55:41.817Z,67.47
2022-11-29T17:58:43.910Z,66.94
2022-11-29T18:08:00.868Z,67.78
2022-11-29T18:11:03.192Z,67.17
2022-11-29T18:13:51.934Z,67.14
2022-11-29T18:17:04.263Z,66.87
2022-11-29T18:19:52.907Z,67.16
2022-11-29T18:22:46.716Z,67.01
2022-11-29T18:25:38.576Z,66.89
2022-11-29T18:35:06.880Z,66.92
2022-11-29T18:38:13.496Z,66.69
2022-11-29T18:40:54.708Z,66.85
2022-11-29T18:43:46.970Z,67.12
2022-11-29T18:46:40.832Z,66.58
2022-11-29T18:49:30.334Z,66.93
2022-11-29T18:52:10.749Z,66.46
2022-11-29T18:54:58.981Z,66.84
2022-11-29T18:57:27.319Z,66.80
2022-11-29T19:00:16.878Z,66.90
2022-11-29T19:04:00.595Z,67.33
2022-11-29T19:06:40.158Z,66.78
2022-11-29T19:10:00.510Z,67.33
2022-11-29T19:12:43.256Z,67.22
2022-11-29T19:16:00.284Z,67.31
2022-11-29T19:22:36.544Z,67.00
2022-11-29T19:31:54.278Z,67.14
2022-11-29T19:34:58.488Z,66.99
2022-11-29T19:37:44.145Z,66.62
2022-11-29T19:40:32.066Z,66.74
2022-11-29T19:50:14.488Z,66.95
2022-11-29T19:53:01.565Z,67.12
2022-11-29T19:55:53.336Z,66.71
2022-11-29T19:58:21.652Z,67.31
2022-11-29T20:00:49.441Z,67.28
2022-11-29T20:03:37.902Z,67.26
2022-11-29T20:06:37.200Z,67.29
2022-11-29T20:12:38.213Z,67.25
2022-11-29T20:15:55.922Z,67.31
2022-11-29T20:18:51.946Z,66.89
2022-11-29T20:21:56.546Z,67.41
2022-11-29T20:25:02.578Z,67.28
2022-11-29T20:28:01.415Z,66.69
2022-11-29T20:35:02.047Z,67.35
2022-11-29T20:56:01.564Z,67.16
2022-11-29T21:02:29.659Z,67.64
2022-11-29T21:05:45.811Z,67.96
2022-11-29T21:09:28.569Z,67.97
2022-11-29T21:15:56.553Z,67.41
2022-11-29T21:27:23.775Z,67.43
2022-11-29T21:29:53.516Z,67.60
2022-11-29T21:32:29.028Z,67.37
2022-11-29T21:34:57.156Z,67.36
2022-11-29T21:37:36.611Z,67.39
2022-11-29T21:40:04.950Z,67.54
2022-11-29T21:42:37.571Z,67.60
2022-11-29T21:45:14.885Z,67.51
2022-11-29T21:47:44.094Z,67.64
2022-11-29T21:50:13.564Z,67.73
2022-11-29T21:52:41.769Z,67.67
2022-11-29T21:55:10.418Z,67.26
2022-11-29T21:57:41.256Z,67.56
2022-11-29T22:00:10.520Z,67.27
2022-11-29T22:02:38.498Z,67.44
2022-11-29T22:05:07.997Z,67.57
2022-11-29T22:07:35.984Z,67.74
2022-11-29T22:10:09.915Z,67.59
2022-11-29T22:12:51.238Z,67.55
2022-11-29T22:15:24.462Z,67.95
2022-11-29T22:17:52.949Z,67.56
2022-11-29T22:20:21.145Z,67.30
2022-11-29T22:22:49.346Z,67.34
2022-11-29T22:25:17.412Z,67.50
2022-11-29T22:27:46.759Z,67.72
2022-11-29T22:30:14.960Z,67.60
2022-11-29T22:32:43.421Z,67.46
2022-11-29T22:35:11.272Z,67.49
2022-11-29T22:37:39.175Z,67.68
2022-11-29T22:40:08.461Z,67.22
2022-11-29T22:42:36.448Z,67.40
2022-11-29T22:45:06.437Z,67.38
2022-11-29T22:47:34.431Z,67.37
2022-11-29T22:50:02.465Z,67.58
2022-11-29T22:52:30.670Z,67.72
2022-11-29T22:55:04.285Z,67.42
2022-11-29T22:57:33.261Z,68.01
2022-11-29T23:00:01.847Z,67.29
2022-11-29T23:02:31.293Z,67.44
2022-11-29T23:04:59.657Z,67.57
2022-11-29T23:07:28.199Z,67.68
2022-11-29T23:09:56.607Z,67.51
2022-11-29T23:12:25.258Z,67.12
2022-11-29T23:14:56.569Z,67.15
2022-11-29T23:17:25.041Z,67.27
2022-11-29T23:19:54.819Z,67.50
2022-11-29T23:22:23.347Z,67.24
2022-11-29T23:24:51.269Z,67.65
2022-11-29T23:27:19.567Z,67.31
2022-11-29T23:29:47.852Z,67.54
2022-11-29T23:32:15.745Z,67.21
2022-11-29T23:34:44.164Z,67.18
2022-11-29T23:37:14.519Z,67.10
2022-11-29T23:39:42.450Z,67.21
2022-11-29T23:42:10.796Z,67.37
2022-11-29T23:44:39.123Z,67.65
2022-11-29T23:47:07.151Z,67.30
2022-11-29T23:49:40.183Z,67.33
2022-11-29T23:52:09.489Z,67.12
2022-11-29T23:54:38.819Z,66.83
2022-11-29T23:57:07.180Z,66.91
2022-11-29T23:59:35.091Z,66.99
